createdAt,value
2023-05-01T00:00:26.410Z,0.00
2023-05-01T00:01:26.425Z,0.00
2023-05-01T00:02:26.469Z,0.00
2023-05-01T00:03:26.559Z,0.00
2023-05-01T00:04:26.491Z,0.00
2023-05-01T00:05:26.382Z,0.00
2023-05-01T00:06:26.437Z,0.00
2023-05-01T00:07:26.353Z,0.00
2023-05-01T00:08:28.055Z,0.00
2023-05-01T00:09:26.394Z,0.00
2023-05-01T00:10:26.336Z,0.00
2023-05-01T00:11:26.332Z,0.00
2023-05-01T00:12:26.334Z,0.00
2023-05-01T00:13:27.039Z,0.00
2023-05-01T00:14:26.332Z,0.00
2023-05-01T00:15:26.300Z,0.00
2023-05-01T00:16:26.324Z,0.00
2023-05-01T00:17:26.460Z,0.00
2023-05-01T00:18:26.304Z,0.00
2023-05-01T00:19:26.293Z,0.00
2023-05-01T00:20:26.277Z,0.00
2023-05-01T00:22:26.205Z,0.00
2023-05-01T00:23:26.224Z,0.00
2023-05-01T00:24:27.270Z,0.00
2023-05-01T00:25:27.255Z,0.00
2023-05-01T00:26:27.254Z,0.00
2023-05-01T00:27:27.256Z,0.00
2023-05-01T00:28:27.290Z,0.00
2023-05-01T00:29:27.233Z,0.00
2023-05-01T00:30:27.224Z,0.00
2023-05-01T00:31:27.223Z,0.00
2023-05-01T00:32:27.238Z,0.00
2023-05-01T00:33:27.203Z,0.00
2023-05-01T00:34:27.192Z,0.00
2023-05-01T00:35:27.206Z,0.00
2023-05-01T00:36:27.184Z,0.00
2023-05-01T00:37:27.184Z,0.00
2023-05-01T00:38:27.156Z,0.00
2023-05-01T00:39:27.169Z,0.00
2023-05-01T00:40:27.137Z,0.00
2023-05-01T00:41:27.144Z,0.00
2023-05-01T00:42:27.152Z,0.00
2023-05-01T00:43:27.137Z,0.00
2023-05-01T00:44:27.110Z,0.00
2023-05-01T00:45:28.108Z,0.00
2023-05-01T00:46:27.172Z,0.00
2023-05-01T00:47:27.134Z,0.00
2023-05-01T00:48:27.083Z,0.00
2023-05-01T00:49:27.093Z,0.00
2023-05-01T00:50:27.068Z,0.00
2023-05-01T00:51:27.078Z,0.00
2023-05-01T00:52:27.057Z,0.00
2023-05-01T00:53:27.046Z,0.00
2023-05-01T00:54:27.040Z,0.00
2023-05-01T00:55:27.027Z,0.00
2023-05-01T00:56:27.035Z,0.00
2023-05-01T00:57:27.039Z,0.00
2023-05-01T00:58:27.023Z,0.00
2023-05-01T00:59:27.016Z,0.00
2023-05-01T01:00:27.006Z,0.00
2023-05-01T01:01:27.030Z,0.00
2023-05-01T01:02:26.982Z,0.00
2023-05-01T01:03:26.971Z,0.00
2023-05-01T01:04:27.031Z,0.00
2023-05-01T01:05:27.653Z,0.00
2023-05-01T01:06:26.993Z,0.00
2023-05-01T01:07:26.949Z,0.00
2023-05-01T01:08:26.924Z,0.00
2023-05-01T01:09:26.917Z,0.00
2023-05-01T01:10:26.909Z,0.00
2023-05-01T01:11:26.919Z,0.00
2023-05-01T01:12:26.910Z,0.00
2023-05-01T01:13:26.905Z,0.00
2023-05-01T01:14:26.899Z,0.00
2023-05-01T01:15:26.875Z,0.00
2023-05-01T01:16:27.213Z,0.00
2023-05-01T01:17:26.866Z,0.00
2023-05-01T01:18:26.860Z,0.00
2023-05-01T01:19:26.860Z,0.00
2023-05-01T01:20:26.848Z,0.00
2023-05-01T01:21:26.822Z,0.00
2023-05-01T01:22:26.834Z,0.00
2023-05-01T01:23:26.807Z,0.00
2023-05-01T01:24:26.817Z,0.00
2023-05-01T01:25:26.806Z,0.00
2023-05-01T01:26:26.787Z,0.00
2023-05-01T01:27:26.808Z,0.00
2023-05-01T01:28:26.767Z,0.00
2023-05-01T01:29:26.802Z,0.00
2023-05-01T01:30:26.759Z,0.00
2023-05-01T01:31:26.809Z,0.00
2023-05-01T01:32:26.797Z,0.00
2023-05-01T01:33:26.730Z,0.00
2023-05-01T01:34:26.744Z,0.00
2023-05-01T01:35:26.709Z,0.00
2023-05-01T01:36:26.712Z,0.00
2023-05-01T01:37:26.705Z,0.00
2023-05-01T01:38:26.708Z,0.00
2023-05-01T01:39:26.691Z,0.00
2023-05-01T01:40:26.670Z,0.00
2023-05-01T01:41:26.680Z,0.00
2023-05-01T01:42:26.686Z,0.00
2023-05-01T01:43:26.670Z,0.00
2023-05-01T01:44:26.645Z,0.00
2023-05-01T01:45:26.654Z,0.00
2023-05-01T01:46:26.686Z,0.00
2023-05-01T01:47:26.674Z,0.00
2023-05-01T01:48:26.616Z,0.00
2023-05-01T01:49:26.627Z,0.00
2023-05-01T01:50:26.615Z,0.00
2023-05-01T01:51:26.599Z,0.00
2023-05-01T01:52:26.610Z,0.00
2023-05-01T01:53:26.578Z,0.00
2023-05-01T01:54:26.577Z,0.00
2023-05-01T01:55:27.156Z,0.00
2023-05-01T01:56:26.546Z,0.00
2023-05-01T01:57:26.554Z,0.00
2023-05-01T01:58:26.653Z,0.00
2023-05-01T01:59:26.544Z,0.00
2023-05-01T02:00:27.147Z,0.00
2023-05-01T02:01:26.540Z,0.00
2023-05-01T02:02:26.697Z,0.00
2023-05-01T02:03:26.722Z,0.00
2023-05-01T02:04:26.509Z,0.00
2023-05-01T02:05:26.489Z,0.00
2023-05-01T02:06:26.510Z,0.00
2023-05-01T02:07:26.458Z,0.00
2023-05-01T02:08:26.441Z,0.00
2023-05-01T02:09:26.450Z,0.00
2023-05-01T02:10:26.451Z,0.00
2023-05-01T02:11:26.432Z,0.00
2023-05-01T02:12:26.464Z,0.00
2023-05-01T02:13:26.410Z,0.00
2023-05-01T02:14:26.425Z,0.00
2023-05-01T02:15:26.414Z,0.00
2023-05-01T02:16:26.430Z,0.00
2023-05-01T02:17:26.429Z,0.00
2023-05-01T02:18:26.373Z,0.00
2023-05-01T02:19:26.380Z,0.00
2023-05-01T02:20:26.368Z,0.00
2023-05-01T02:21:26.380Z,0.00
2023-05-01T02:22:26.350Z,0.00
2023-05-01T02:23:26.338Z,0.00
2023-05-01T02:24:26.432Z,0.00
2023-05-01T02:25:27.907Z,0.00
2023-05-01T02:26:26.334Z,0.00
2023-05-01T02:27:26.347Z,0.00
2023-05-01T02:28:26.305Z,0.00
2023-05-01T02:29:26.288Z,0.00
2023-05-01T02:30:26.309Z,0.00
2023-05-01T02:31:26.302Z,0.00
2023-05-01T02:32:26.345Z,0.00
2023-05-01T02:33:26.259Z,0.00
2023-05-01T02:34:26.247Z,0.00
2023-05-01T02:35:26.275Z,0.00
2023-05-01T02:36:26.240Z,0.00
2023-05-01T02:37:26.248Z,0.00
2023-05-01T02:38:26.238Z,0.00
2023-05-01T02:39:26.248Z,0.00
2023-05-01T02:40:26.219Z,0.00
2023-05-01T02:41:28.190Z,0.00
2023-05-01T02:42:26.192Z,0.00
2023-05-01T02:43:26.184Z,0.00
2023-05-01T02:44:26.192Z,0.00
2023-05-01T02:45:26.231Z,0.00
2023-05-01T02:46:26.235Z,0.00
2023-05-01T02:47:26.242Z,0.00
2023-05-01T02:48:26.188Z,0.00
2023-05-01T02:49:26.162Z,0.00
2023-05-01T02:50:26.138Z,0.00
2023-05-01T02:51:26.128Z,0.00
2023-05-01T02:52:26.192Z,0.00
2023-05-01T02:53:26.701Z,0.00
2023-05-01T02:54:26.126Z,0.00
2023-05-01T02:55:26.104Z,0.00
2023-05-01T02:56:26.100Z,0.00
2023-05-01T02:57:26.096Z,0.00
2023-05-01T02:58:27.081Z,0.00
2023-05-01T02:59:26.671Z,0.00
2023-05-01T03:00:26.088Z,0.00
2023-05-01T03:01:26.153Z,0.00
2023-05-01T03:02:26.045Z,0.00
2023-05-01T03:03:26.059Z,0.00
2023-05-01T03:04:26.057Z,0.00
2023-05-01T03:05:26.044Z,0.00
2023-05-01T03:06:26.042Z,0.00
2023-05-01T03:07:26.026Z,0.00
2023-05-01T03:08:26.010Z,0.00
2023-05-01T03:09:25.989Z,0.00
2023-05-01T03:10:25.992Z,0.00
2023-05-01T03:11:25.973Z,0.00
2023-05-01T03:12:25.974Z,0.00
2023-05-01T03:13:25.988Z,0.00
2023-05-01T03:14:25.964Z,4.00
2023-05-01T03:15:25.957Z,4.00
2023-05-01T03:16:25.996Z,0.00
2023-05-01T03:17:25.953Z,0.00
2023-05-01T03:18:25.934Z,4.00
2023-05-01T03:19:25.913Z,4.00
2023-05-01T03:20:26.571Z,0.00
2023-05-01T03:21:25.921Z,4.00
2023-05-01T03:22:25.888Z,4.00
2023-05-01T03:23:25.885Z,4.00
2023-05-01T03:24:25.886Z,8.00
2023-05-01T03:25:25.864Z,4.00
2023-05-01T03:26:25.868Z,4.00
2023-05-01T03:27:25.840Z,4.00
2023-05-01T03:28:25.915Z,8.00
2023-05-01T03:29:25.860Z,8.00
2023-05-01T03:30:25.841Z,12.00
2023-05-01T03:31:25.876Z,12.00
2023-05-01T03:32:26.061Z,16.00
2023-05-01T03:33:25.824Z,16.00
2023-05-01T03:34:25.798Z,20.00
2023-05-01T03:35:25.875Z,24.00
2023-05-01T03:36:25.777Z,32.00
2023-05-01T03:37:25.796Z,32.00
2023-05-01T03:38:25.756Z,40.00
2023-05-01T03:39:25.755Z,44.00
2023-05-01T03:40:26.752Z,48.00
2023-05-01T03:41:25.735Z,60.00
2023-05-01T03:42:25.739Z,68.00
2023-05-01T03:43:25.844Z,80.00
2023-05-01T03:44:25.726Z,92.00
2023-05-01T03:45:25.701Z,100.00
2023-05-01T03:46:25.707Z,112.00
2023-05-01T03:47:26.759Z,124.00
2023-05-01T03:48:25.724Z,140.00
2023-05-01T03:49:25.676Z,156.00
2023-05-01T03:50:25.679Z,172.00
2023-05-01T03:51:25.712Z,184.00
2023-05-01T03:52:25.702Z,192.00
2023-05-01T03:53:25.646Z,208.00
2023-05-01T03:54:25.658Z,228.00
2023-05-01T03:55:25.645Z,252.00
2023-05-01T03:56:25.728Z,268.00
2023-05-01T03:57:25.617Z,280.00
2023-05-01T03:58:25.603Z,300.00
2023-05-01T03:59:25.605Z,324.00
2023-05-01T04:00:25.592Z,356.00
2023-05-01T04:01:25.610Z,388.00
2023-05-01T04:02:25.719Z,416.00
2023-05-01T04:03:25.631Z,440.00
2023-05-01T04:04:26.228Z,472.00
2023-05-01T04:05:26.553Z,500.00
2023-05-01T04:06:25.577Z,528.00
2023-05-01T04:07:25.537Z,560.00
2023-05-01T04:08:25.533Z,600.00
2023-05-01T04:09:25.527Z,636.00
2023-05-01T04:10:25.513Z,680.00
2023-05-01T04:11:25.520Z,724.00
2023-05-01T04:12:25.499Z,772.00
2023-05-01T04:13:25.708Z,820.00
2023-05-01T04:14:26.519Z,872.00
2023-05-01T04:15:25.493Z,920.00
2023-05-01T04:16:25.529Z,972.00
2023-05-01T04:17:25.466Z,1028.00
2023-05-01T04:18:25.458Z,1088.00
2023-05-01T04:19:25.479Z,1152.00
2023-05-01T04:20:25.446Z,1216.00
2023-05-01T04:21:26.205Z,1288.00
2023-05-01T04:22:25.477Z,1372.00
2023-05-01T04:23:25.426Z,1464.00
2023-05-01T04:24:25.444Z,1572.00
2023-05-01T04:25:25.400Z,1684.00
2023-05-01T04:26:28.224Z,1824.00
2023-05-01T04:27:25.382Z,2016.00
2023-05-01T04:28:25.424Z,2136.00
2023-05-01T04:29:25.373Z,2140.00
2023-05-01T04:30:25.366Z,2152.00
2023-05-01T04:31:25.396Z,2176.00
2023-05-01T04:32:25.354Z,2248.00
2023-05-01T04:33:25.347Z,2360.00
2023-05-01T04:34:25.325Z,2488.00
2023-05-01T04:35:25.345Z,2568.00
2023-05-01T04:36:27.182Z,2644.00
2023-05-01T04:37:25.320Z,2772.00
2023-05-01T04:38:25.304Z,2924.00
2023-05-01T04:39:25.275Z,3028.00
2023-05-01T04:40:26.112Z,3116.00
2023-05-01T04:41:25.278Z,3244.00
2023-05-01T04:42:25.271Z,3344.00
2023-05-01T04:43:25.248Z,3472.00
2023-05-01T04:44:25.289Z,3628.00
2023-05-01T04:45:25.247Z,3736.00
2023-05-01T04:46:25.229Z,3856.00
2023-05-01T04:47:25.221Z,4044.00
2023-05-01T04:48:25.216Z,4248.00
2023-05-01T04:49:27.091Z,4448.00
2023-05-01T04:50:25.219Z,4592.00
2023-05-01T04:51:25.202Z,4720.00
2023-05-01T04:52:25.187Z,4884.00
2023-05-01T04:53:25.205Z,5064.00
2023-05-01T04:54:26.182Z,5268.00
2023-05-01T04:55:26.193Z,5448.00
2023-05-01T04:56:25.162Z,5676.00
2023-05-01T04:57:25.163Z,5908.00
2023-05-01T04:58:25.137Z,6204.00
2023-05-01T04:59:25.141Z,6512.00
2023-05-01T05:00:25.133Z,6764.00
2023-05-01T05:01:25.188Z,7112.00
2023-05-01T05:02:25.161Z,7540.00
2023-05-01T05:03:25.186Z,7828.00
2023-05-01T05:04:25.161Z,7940.00
2023-05-01T05:05:25.143Z,8080.00
2023-05-01T05:06:25.170Z,8568.00
2023-05-01T05:07:25.069Z,8808.00
2023-05-01T05:08:25.053Z,9004.00
2023-05-01T05:09:25.086Z,9488.00
2023-05-01T05:10:25.063Z,9160.00
2023-05-01T05:11:25.063Z,10248.00
2023-05-01T05:12:25.061Z,11740.00
2023-05-01T05:13:25.042Z,11564.00
2023-05-01T05:14:25.693Z,13760.00
2023-05-01T05:15:25.020Z,15712.00
2023-05-01T05:16:25.037Z,17632.00
2023-05-01T05:17:25.011Z,19264.00
2023-05-01T05:18:25.032Z,20032.00
2023-05-01T05:19:24.978Z,19168.00
2023-05-01T05:20:24.982Z,16992.00
2023-05-01T05:21:24.979Z,15616.00
2023-05-01T05:22:24.968Z,15424.00
2023-05-01T05:23:24.951Z,14592.00
2023-05-01T05:24:24.951Z,14688.00
2023-05-01T05:25:24.987Z,16960.00
2023-05-01T05:26:24.947Z,18432.00
2023-05-01T05:27:24.988Z,19296.00
2023-05-01T05:28:24.905Z,19008.00
2023-05-01T05:29:26.617Z,20992.00
2023-05-01T05:30:24.894Z,22880.00
2023-05-01T05:31:24.967Z,23072.00
2023-05-01T05:32:24.967Z,23040.00
2023-05-01T05:33:24.887Z,23712.00
2023-05-01T05:34:25.741Z,23680.00
2023-05-01T05:35:24.863Z,25600.00
2023-05-01T05:36:24.848Z,26048.00
2023-05-01T05:37:24.831Z,25504.00
2023-05-01T05:38:24.862Z,23936.00
2023-05-01T05:39:24.869Z,22752.00
2023-05-01T05:40:24.827Z,20928.00
2023-05-01T05:41:24.805Z,19936.00
2023-05-01T05:42:24.850Z,18656.00
2023-05-01T05:43:27.329Z,18560.00
2023-05-01T05:44:25.772Z,19584.00
2023-05-01T05:45:24.793Z,19424.00
2023-05-01T05:46:24.817Z,19456.00
2023-05-01T05:47:24.824Z,18656.00
2023-05-01T05:48:24.804Z,18912.00
2023-05-01T05:49:24.752Z,18688.00
2023-05-01T05:50:25.632Z,16544.00
2023-05-01T05:51:26.697Z,17344.00
2023-05-01T05:52:24.736Z,19488.00
2023-05-01T05:53:25.999Z,20128.00
2023-05-01T05:55:32.397Z,22368.00
2023-05-01T05:56:32.401Z,22560.00
2023-05-01T05:57:33.507Z,22432.00
2023-05-01T05:58:33.464Z,23328.00
2023-05-01T05:59:33.471Z,18880.00
2023-05-01T06:00:33.458Z,22048.00
2023-05-01T06:01:35.166Z,20640.00
2023-05-01T06:02:33.575Z,19776.00
2023-05-01T06:03:33.750Z,20352.00
2023-05-01T06:04:33.426Z,20416.00
2023-05-01T06:05:33.454Z,20768.00
2023-05-01T06:06:33.449Z,20864.00
2023-05-01T06:07:33.428Z,20576.00
2023-05-01T06:08:33.387Z,19520.00
2023-05-01T06:10:42.469Z,16736.00
2023-05-01T06:11:44.337Z,15936.00
2023-05-01T06:12:45.545Z,17216.00
2023-05-01T06:13:44.543Z,18240.00
2023-05-01T06:14:43.539Z,19072.00
2023-05-01T06:15:43.575Z,20704.00
2023-05-01T06:16:44.074Z,20480.00
2023-05-01T06:17:43.570Z,19200.00
2023-05-01T06:18:45.674Z,19200.00
2023-05-01T06:19:45.406Z,19104.00
2023-05-01T06:20:43.492Z,19680.00
2023-05-01T06:21:44.732Z,18656.00
2023-05-01T06:22:43.483Z,20736.00
2023-05-01T06:23:43.481Z,19456.00
2023-05-01T06:25:16.380Z,18304.00
2023-05-01T06:25:43.452Z,17152.00
2023-05-01T06:26:43.457Z,18656.00
2023-05-01T06:27:43.473Z,20128.00
2023-05-01T06:28:43.433Z,22880.00
2023-05-01T06:29:43.417Z,22144.00
2023-05-01T06:30:43.426Z,18592.00
2023-05-01T06:31:43.414Z,18464.00
2023-05-01T06:32:43.443Z,21056.00
2023-05-01T06:33:43.412Z,21728.00
2023-05-01T06:34:43.377Z,20480.00
2023-05-01T06:35:43.410Z,19424.00
2023-05-01T06:36:43.363Z,19360.00
2023-05-01T06:37:44.374Z,19328.00
2023-05-01T06:38:43.344Z,19680.00
2023-05-01T06:39:43.368Z,18496.00
2023-05-01T06:40:43.337Z,20512.00
2023-05-01T06:41:43.335Z,21696.00
2023-05-01T06:42:43.317Z,19680.00
2023-05-01T06:43:43.305Z,18816.00
2023-05-01T06:44:43.299Z,18336.00
2023-05-01T06:45:44.870Z,20736.00
2023-05-01T06:46:43.306Z,17952.00
2023-05-01T06:47:43.339Z,18496.00
2023-05-01T06:48:43.276Z,19488.00
2023-05-01T06:49:43.258Z,19584.00
2023-05-01T06:50:43.306Z,18432.00
2023-05-01T06:51:43.257Z,18400.00
2023-05-01T06:52:44.953Z,17440.00
2023-05-01T06:53:43.249Z,17024.00
2023-05-01T06:54:43.238Z,17152.00
2023-05-01T06:55:43.220Z,17120.00
2023-05-01T06:56:43.204Z,17568.00
2023-05-01T06:57:43.212Z,17760.00
2023-05-01T06:58:43.188Z,18560.00
2023-05-01T06:59:43.193Z,17888.00
2023-05-01T07:00:43.185Z,17504.00
2023-05-01T07:01:43.255Z,19264.00
2023-05-01T07:02:43.290Z,19776.00
2023-05-01T07:03:43.225Z,16800.00
2023-05-01T07:04:43.976Z,17024.00
2023-05-01T07:05:43.127Z,17248.00
2023-05-01T07:06:43.144Z,19136.00
2023-05-01T07:07:54.135Z,22496.00
2023-05-01T07:08:44.135Z,22816.00
2023-05-01T07:09:43.113Z,22144.00
2023-05-01T07:10:43.109Z,20768.00
2023-05-01T07:11:44.982Z,20480.00
2023-05-01T07:12:43.091Z,18304.00
2023-05-01T07:13:43.065Z,18496.00
2023-05-01T07:14:43.071Z,21888.00
2023-05-01T07:15:43.054Z,22432.00
2023-05-01T07:16:43.105Z,20960.00
2023-05-01T07:17:43.057Z,21952.00
2023-05-01T07:18:43.032Z,23008.00
2023-05-01T07:19:43.029Z,22816.00
2023-05-01T07:20:43.033Z,24032.00
2023-05-01T07:21:44.885Z,25824.00
2023-05-01T07:22:43.009Z,26304.00
2023-05-01T07:23:42.998Z,26752.00
2023-05-01T07:24:45.908Z,28192.00
2023-05-01T07:25:42.990Z,29664.00
2023-05-01T07:26:42.969Z,32672.00
2023-05-01T07:27:42.968Z,34496.00
2023-05-01T07:28:42.953Z,33792.00
2023-05-01T07:29:42.955Z,38016.00
2023-05-01T07:30:42.937Z,37120.00
2023-05-01T07:31:43.578Z,33568.00
2023-05-01T07:32:42.958Z,32704.00
2023-05-01T07:33:42.937Z,31424.00
2023-05-01T07:34:42.915Z,36256.00
2023-05-01T07:35:42.892Z,42432.00
2023-05-01T07:36:42.900Z,43232.00
2023-05-01T07:37:42.907Z,49088.00
2023-05-01T07:38:42.892Z,53440.00
2023-05-01T07:39:42.888Z,54048.00
2023-05-01T07:40:42.876Z,49184.00
2023-05-01T07:41:42.848Z,44736.00
2023-05-01T07:42:42.835Z,36736.00
2023-05-01T07:43:44.391Z,34656.00
2023-05-01T07:44:42.853Z,33824.00
2023-05-01T07:45:43.145Z,33024.00
2023-05-01T07:46:42.815Z,32064.00
2023-05-01T07:47:42.873Z,27584.00
2023-05-01T07:48:42.813Z,25056.00
2023-05-01T07:49:43.415Z,23168.00
2023-05-01T07:50:42.785Z,25248.00
2023-05-01T07:51:42.783Z,25824.00
2023-05-01T07:52:42.815Z,25664.00
2023-05-01T07:53:42.753Z,23680.00
2023-05-01T07:54:42.760Z,23008.00
2023-05-01T07:55:42.751Z,22816.00
2023-05-01T07:56:42.734Z,22688.00
2023-05-01T07:57:42.723Z,22368.00
2023-05-01T07:58:42.726Z,21440.00
2023-05-01T07:59:42.715Z,18496.00
2023-05-01T08:00:42.720Z,15936.00
2023-05-01T08:01:42.709Z,14928.00
2023-05-01T08:02:42.792Z,13936.00
2023-05-01T08:03:42.779Z,13176.00
2023-05-01T08:04:42.684Z,12648.00
2023-05-01T08:05:42.687Z,12352.00
2023-05-01T08:06:42.694Z,12004.00
2023-05-01T08:07:42.636Z,11676.00
2023-05-01T08:08:42.678Z,11416.00
2023-05-01T08:09:42.669Z,11196.00
2023-05-01T08:10:42.619Z,11016.00
2023-05-01T08:11:42.607Z,10888.00
2023-05-01T08:12:42.624Z,10844.00
2023-05-01T08:13:42.604Z,11084.00
2023-05-01T08:14:42.605Z,12060.00
2023-05-01T08:15:42.643Z,13540.00
2023-05-01T08:16:42.633Z,13832.00
2023-05-01T08:17:42.612Z,12748.00
2023-05-01T08:18:42.627Z,12820.00
2023-05-01T08:19:42.562Z,13044.00
2023-05-01T08:20:42.558Z,13432.00
2023-05-01T08:21:42.551Z,13944.00
2023-05-01T08:22:43.548Z,14612.00
2023-05-01T08:23:42.522Z,16000.00
2023-05-01T08:24:42.510Z,16256.00
2023-05-01T08:25:42.521Z,16576.00
2023-05-01T08:26:42.516Z,18720.00
2023-05-01T08:27:42.502Z,20960.00
2023-05-01T08:28:42.496Z,22688.00
2023-05-01T08:29:42.471Z,22432.00
2023-05-01T08:30:43.479Z,22080.00
2023-05-01T08:31:42.519Z,20736.00
2023-05-01T08:32:42.512Z,22592.00
2023-05-01T08:33:42.450Z,24448.00
2023-05-01T08:34:42.464Z,24480.00
2023-05-01T08:35:43.997Z,22912.00
2023-05-01T08:36:42.485Z,21856.00
2023-05-01T08:37:42.414Z,21344.00
2023-05-01T08:38:42.417Z,21792.00
2023-05-01T08:39:42.403Z,20672.00
2023-05-01T08:40:42.388Z,18080.00
2023-05-01T08:41:42.954Z,18176.00
2023-05-01T08:42:42.423Z,21504.00
2023-05-01T08:43:42.387Z,19904.00
2023-05-01T08:44:42.377Z,17984.00
2023-05-01T08:45:42.375Z,19392.00
2023-05-01T08:46:42.411Z,18240.00
2023-05-01T08:47:42.410Z,18976.00
2023-05-01T08:48:42.335Z,17888.00
2023-05-01T08:49:42.327Z,17728.00
2023-05-01T08:50:42.324Z,17280.00
2023-05-01T08:51:42.334Z,17152.00
2023-05-01T08:52:44.008Z,16992.00
2023-05-01T08:53:43.302Z,16672.00
2023-05-01T08:54:42.293Z,16288.00
2023-05-01T08:55:42.293Z,15992.00
2023-05-01T08:56:42.289Z,15216.00
2023-05-01T08:57:42.266Z,14808.00
2023-05-01T08:58:42.293Z,14348.00
2023-05-01T08:59:42.249Z,14116.00
2023-05-01T09:00:42.306Z,13984.00
2023-05-01T09:01:42.273Z,13892.00
2023-05-01T09:02:42.259Z,13912.00
2023-05-01T09:03:42.261Z,13740.00
2023-05-01T09:04:42.229Z,13684.00
2023-05-01T09:05:42.209Z,13888.00
2023-05-01T09:06:42.268Z,14200.00
2023-05-01T09:07:43.030Z,14168.00
2023-05-01T09:08:42.173Z,14168.00
2023-05-01T09:09:42.174Z,14072.00
2023-05-01T09:10:42.173Z,13992.00
2023-05-01T09:11:42.147Z,14076.00
2023-05-01T09:12:42.172Z,13992.00
2023-05-01T09:13:43.014Z,13960.00
2023-05-01T09:14:42.164Z,14264.00
2023-05-01T09:15:42.125Z,14440.00
2023-05-01T09:16:43.043Z,14444.00
2023-05-01T09:17:42.170Z,14448.00
2023-05-01T09:18:42.118Z,14256.00
2023-05-01T09:19:42.101Z,14432.00
2023-05-01T09:20:42.103Z,15396.00
2023-05-01T09:21:42.080Z,15784.00
2023-05-01T09:22:42.088Z,16384.00
2023-05-01T09:23:42.081Z,16608.00
2023-05-01T09:24:42.052Z,16416.00
2023-05-01T09:25:42.061Z,16640.00
2023-05-01T09:26:42.069Z,16320.00
2023-05-01T09:27:42.053Z,15684.00
2023-05-01T09:28:44.011Z,14952.00
2023-05-01T09:29:42.023Z,14236.00
2023-05-01T09:30:42.022Z,13980.00
2023-05-01T09:31:42.068Z,14176.00
2023-05-01T09:32:42.669Z,13944.00
2023-05-01T09:33:42.976Z,13844.00
2023-05-01T09:34:41.994Z,13900.00
2023-05-01T09:35:41.996Z,14028.00
2023-05-01T09:36:41.979Z,14136.00
2023-05-01T09:37:41.960Z,14292.00
2023-05-01T09:38:42.059Z,14592.00
2023-05-01T09:39:41.947Z,14600.00
2023-05-01T09:40:41.929Z,14800.00
2023-05-01T09:41:41.930Z,14692.00
2023-05-01T09:42:41.942Z,14548.00
2023-05-01T09:43:41.950Z,14512.00
2023-05-01T09:44:41.924Z,14492.00
2023-05-01T09:45:41.918Z,14616.00
2023-05-01T09:46:41.932Z,14856.00
2023-05-01T09:47:41.898Z,15016.00
2023-05-01T09:48:41.882Z,15180.00
2023-05-01T09:49:41.884Z,15324.00
2023-05-01T09:50:41.863Z,15460.00
2023-05-01T09:51:41.837Z,15440.00
2023-05-01T09:52:41.850Z,15200.00
2023-05-01T09:53:41.850Z,15368.00
2023-05-01T09:54:41.853Z,14868.00
2023-05-01T09:55:41.815Z,14728.00
2023-05-01T09:56:41.821Z,14448.00
2023-05-01T09:57:41.803Z,14172.00
2023-05-01T09:58:41.835Z,14036.00
2023-05-01T09:59:41.806Z,13988.00
2023-05-01T10:00:41.777Z,14060.00
2023-05-01T10:01:41.936Z,14148.00
2023-05-01T10:02:42.664Z,14612.00
2023-05-01T10:03:41.904Z,15132.00
2023-05-01T10:04:41.747Z,15128.00
2023-05-01T10:05:41.750Z,14604.00
2023-05-01T10:06:41.801Z,14628.00
2023-05-01T10:07:41.713Z,14792.00
2023-05-01T10:08:41.726Z,14896.00
2023-05-01T10:09:41.716Z,14868.00
2023-05-01T10:10:41.808Z,14816.00
2023-05-01T10:11:41.697Z,14772.00
2023-05-01T10:12:43.535Z,14792.00
2023-05-01T10:13:41.698Z,14816.00
2023-05-01T10:14:41.660Z,14864.00
2023-05-01T10:15:41.690Z,14924.00
2023-05-01T10:16:41.721Z,15016.00
2023-05-01T10:17:41.693Z,15124.00
2023-05-01T10:18:41.718Z,15240.00
2023-05-01T10:19:41.635Z,15316.00
2023-05-01T10:20:41.641Z,15388.00
2023-05-01T10:21:41.635Z,15536.00
2023-05-01T10:22:41.601Z,15536.00
2023-05-01T10:23:41.622Z,15624.00
2023-05-01T10:24:41.625Z,15808.00
2023-05-01T10:25:41.608Z,15904.00
2023-05-01T10:26:41.640Z,15968.00
2023-05-01T10:27:41.591Z,16000.00
2023-05-01T10:28:41.571Z,16000.00
2023-05-01T10:29:42.505Z,16096.00
2023-05-01T10:30:41.556Z,16192.00
2023-05-01T10:31:42.658Z,16288.00
2023-05-01T10:32:42.588Z,16416.00
2023-05-01T10:33:41.656Z,16448.00
2023-05-01T10:34:41.567Z,16544.00
2023-05-01T10:35:41.521Z,16608.00
2023-05-01T10:36:41.535Z,16704.00
2023-05-01T10:37:41.504Z,16736.00
2023-05-01T10:38:41.506Z,16800.00
2023-05-01T10:39:41.482Z,16832.00
2023-05-01T10:40:41.488Z,16768.00
2023-05-01T10:41:41.467Z,16640.00
2023-05-01T10:42:41.549Z,16640.00
2023-05-01T10:43:41.459Z,16576.00
2023-05-01T10:44:41.448Z,16576.00
2023-05-01T10:45:41.455Z,16416.00
2023-05-01T10:46:41.460Z,16288.00
2023-05-01T10:47:41.545Z,16256.00
2023-05-01T10:48:41.421Z,16160.00
2023-05-01T10:49:41.401Z,16096.00
2023-05-01T10:50:42.073Z,16000.00
2023-05-01T10:51:41.376Z,15904.00
2023-05-01T10:52:41.480Z,15840.00
2023-05-01T10:53:41.367Z,15840.00
2023-05-01T10:54:41.371Z,15808.00
2023-05-01T10:55:41.356Z,15808.00
2023-05-01T10:56:41.359Z,15808.00
2023-05-01T10:57:41.335Z,15808.00
2023-05-01T10:58:42.059Z,15668.00
2023-05-01T10:59:41.336Z,15600.00
2023-05-01T11:00:41.974Z,15572.00
2023-05-01T11:01:41.389Z,15420.00
2023-05-01T11:02:41.361Z,15364.00
2023-05-01T11:03:41.323Z,15272.00
2023-05-01T11:04:41.301Z,15104.00
2023-05-01T11:05:41.307Z,15076.00
2023-05-01T11:06:41.339Z,14916.00
2023-05-01T11:07:41.274Z,14784.00
2023-05-01T11:08:44.073Z,14776.00
2023-05-01T11:09:41.465Z,14840.00
2023-05-01T11:10:41.252Z,14932.00
2023-05-01T11:11:41.225Z,15036.00
2023-05-01T11:12:42.982Z,15064.00
2023-05-01T11:13:41.214Z,15080.00
2023-05-01T11:14:41.213Z,15016.00
2023-05-01T11:15:42.113Z,14884.00
2023-05-01T11:16:41.260Z,14752.00
2023-05-01T11:17:41.321Z,14620.00
2023-05-01T11:18:41.182Z,14444.00
2023-05-01T11:19:41.207Z,14248.00
2023-05-01T11:20:41.158Z,14072.00
2023-05-01T11:21:41.198Z,13976.00
2023-05-01T11:22:41.147Z,14016.00
2023-05-01T11:23:41.135Z,14132.00
2023-05-01T11:24:41.131Z,14276.00
2023-05-01T11:25:41.123Z,14384.00
2023-05-01T11:26:41.129Z,14404.00
2023-05-01T11:27:41.102Z,14328.00
2023-05-01T11:28:41.105Z,14272.00
2023-05-01T11:29:42.090Z,14324.00
2023-05-01T11:30:41.098Z,14452.00
2023-05-01T11:31:41.160Z,14676.00
2023-05-01T11:32:41.106Z,14880.00
2023-05-01T11:33:41.066Z,14876.00
2023-05-01T11:34:41.047Z,14668.00
2023-05-01T11:35:41.050Z,14452.00
2023-05-01T11:36:41.039Z,14208.00
2023-05-01T11:37:41.068Z,13888.00
2023-05-01T11:38:41.049Z,13472.00
2023-05-01T11:39:41.016Z,13128.00
2023-05-01T11:40:40.996Z,12988.00
2023-05-01T11:41:41.080Z,13044.00
2023-05-01T11:42:41.011Z,13168.00
2023-05-01T11:44:47.846Z,13492.00
2023-05-01T11:45:47.862Z,13560.00
2023-05-01T11:46:47.819Z,13816.00
2023-05-01T11:47:47.843Z,14204.00
2023-05-01T11:48:47.801Z,14700.00
2023-05-01T11:49:47.800Z,15056.00
2023-05-01T11:50:47.802Z,15184.00
2023-05-01T11:51:49.689Z,15064.00
2023-05-01T11:52:47.797Z,14888.00
2023-05-01T11:53:47.770Z,14776.00
2023-05-01T11:54:47.759Z,14552.00
2023-05-01T11:55:47.747Z,14268.00
2023-05-01T11:56:47.764Z,14036.00
2023-05-01T11:57:47.752Z,13928.00
2023-05-01T11:58:47.740Z,13820.00
2023-05-01T11:59:48.833Z,13756.00
2023-05-01T12:00:48.843Z,13756.00
2023-05-01T12:01:48.829Z,13788.00
2023-05-01T12:02:48.841Z,13740.00
2023-05-01T12:03:48.856Z,13580.00
2023-05-01T12:04:50.369Z,13384.00
2023-05-01T12:05:48.840Z,13116.00
2023-05-01T12:06:48.799Z,12868.00
2023-05-01T12:07:48.741Z,12600.00
2023-05-01T12:08:48.754Z,12296.00
2023-05-01T12:09:48.738Z,12028.00
2023-05-01T12:10:49.356Z,11788.00
2023-05-01T12:11:50.526Z,11648.00
2023-05-01T12:12:48.713Z,11572.00
2023-05-01T12:13:48.709Z,11560.00
2023-05-01T12:14:48.693Z,11572.00
2023-05-01T12:15:48.692Z,11608.00
2023-05-01T12:16:48.807Z,11664.00
2023-05-01T12:17:49.359Z,11724.00